Terminal Aerodrome Forecast
Issued by NWS

Home | Current Version | Previous Version | Text Only | Print | Product List | Glossary On
Versions: 1 2 3 4 5 6 7 8 9 10 11 12 13 14 15 16 17 18 19 20 21 22 23 24
000
FTUS45 KLKN 291736
TAFEKO
TAF
KEKO 291736Z 2918/3018 VRB05KT P6SM SCT120
     FM291900 22010G20KT P6SM BKN120
     FM300300 14012KT P6SM FEW120
     FM301400 10016G23KT P6SM SKC
     FM301600 05018G26KT P6SM FEW250
     FM301700 15029G37KT P6SM SCT250=

USA.gov is the U.S. government's official web portal to all federal, state and local government web resources and services.